Time,TemperatureF,DewpointF,PressureIn,WindDirection,WindDirectionDegrees,WindSpeedMPH,WindSpeedGustMPH,Humidity,HourlyPrecipIn,Conditions,Clouds,dailyrainin,SolarRadiationWatts/m^2,SoftwareType,DateUTC
2013-05-08 00:01:00,69.0,62.2,30.02,WNW,286,0.0,0.0,79,0.00,,CLR,0.00,0.00,VWS V14.00,2013-05-08 04:01:00,
2013-05-08 00:02:00,69.0,62.2,30.02,WNW,286,0.0,0.0,79,0.00,,CLR,0.00,0.00,VWS V14.00,2013-05-08 04:02:00,
2013-05-08 00:07:00,68.9,62.1,30.02,WNW,286,0.0,0.0,79,0.00,,CLR,0.00,0.00,VWS V14.00,2013-05-08 04:07:00,
2013-05-08 00:12:00,68.7,62.3,30.02,WNW,286,0.0,0.0,80,0.00,,CLR,0.00,0.00,VWS V14.00,2013-05-08 04:12:00,
2013-05-08 00:17:00,68.5,62.1,30.02,WNW,286,0.0,2.0,80,0.00,,CLR,0.00,0.00,VWS V14.00,2013-05-08 04:17:00,
2013-05-08 00:22:00,68.4,62.3,30.02,WNW,286,1.0,1.0,81,0.00,,CLR,0.00,0.00,VWS V14.00,2013-05-08 04:22:00,
2013-05-08 00:27:00,68.4,62.3,30.02,WNW,286,0.0,1.0,81,0.00,,CLR,0.00,0.00,VWS V14.00,2013-05-08 04:27:00,
2013-05-08 00:32:00,68.3,62.2,30.02,WNW,286,0.0,0.0,81,0.00,,CLR,0.00,0.00,VWS V14.00,2013-05-08 04:32:00,
2013-05-08 00:37:00,68.1,62.1,30.02,WNW,286,0.0,1.0,81,0.00,,CLR,0.00,0.00,VWS V14.00,2013-05-08 04:37:00,
2013-05-08 00:42:00,68.0,62.0,30.02,WNW,286,0.0,1.0,81,0.00,,CLR,0.00,0.00,VWS V14.00,2013-05-08 04:42:00,
2013-05-08 00:47:00,68.0,62.3,30.02,WNW,286,0.0,0.0,82,0.00,,CLR,0.00,0.00,VWS V14.00,2013-05-08 04:47:00,
2013-05-08 00:52:00,67.9,62.2,30.02,WNW,286,0.0,0.0,82,0.00,,CLR,0.00,0.00,VWS V14.00,2013-05-08 04:52:00,
2013-05-08 00:57:00,67.7,62.0,30.02,WNW,286,0.0,1.0,82,0.00,,CLR,0.00,0.00,VWS V14.00,2013-05-08 04:57:00,
2013-05-08 01:02:00,67.7,62.0,30.02,WNW,286,0.0,1.0,82,0.00,,CLR,0.00,0.00,VWS V14.00,2013-05-08 05:02:00,
2013-05-08 01:07:00,67.5,61.8,30.02,WNW,286,0.0,0.0,82,0.00,,CLR,0.00,0.00,VWS V14.00,2013-05-08 05:07:00,
2013-05-08 01:12:00,67.4,62.1,30.02,WNW,286,0.0,0.0,83,0.00,,CLR,0.00,0.00,VWS V14.00,2013-05-08 05:12:00,
2013-05-08 01:17:00,67.3,62.0,30.01,WNW,286,0.0,0.0,83,0.00,,CLR,0.00,0.00,VWS V14.00,2013-05-08 05:17:00,
2013-05-08 01:22:00,67.3,62.0,30.01,WNW,286,0.0,0.0,83,0.00,,CLR,0.00,0.00,VWS V14.00,2013-05-08 05:22:00,
2013-05-08 01:27:00,67.1,61.8,30.01,WNW,286,0.0,0.0,83,0.00,,CLR,0.00,0.00,VWS V14.00,2013-05-08 05:27:00,
2013-05-08 01:32:00,66.9,61.6,30.01,WNW,286,0.0,0.0,83,0.00,,CLR,0.00,0.00,VWS V14.00,2013-05-08 05:32:00,
2013-05-08 01:37:00,66.7,61.4,30.01,WNW,286,0.0,0.0,83,0.00,,CLR,0.00,0.00,VWS V14.00,2013-05-08 05:37:00,
2013-05-08 01:42:00,66.7,61.4,30.01,WNW,286,0.0,0.0,83,0.00,,CLR,0.00,0.00,VWS V14.00,2013-05-08 05:42:00,
2013-05-08 01:47:00,66.5,61.2,30.01,WNW,286,0.0,0.0,83,0.00,,CLR,0.00,0.00,VWS V14.00,2013-05-08 05:47:00,
2013-05-08 01:52:00,66.3,61.0,30.01,WNW,286,0.0,1.0,83,0.00,,CLR,0.00,0.00,VWS V14.00,2013-05-08 05:52:00,
2013-05-08 01:57:00,66.1,61.1,30.01,WNW,286,0.0,0.0,84,0.00,,CLR,0.00,0.00,VWS V14.00,2013-05-08 05:57:00,
2013-05-08 02:02:00,66.0,61.0,30.00,WNW,286,0.0,1.0,84,0.00,,CLR,0.00,0.00,VWS V14.00,2013-05-08 06:02:00,
2013-05-08 02:07:00,66.1,61.5,30.00,WNW,286,1.0,2.0,85,0.00,,CLR,0.00,0.00,VWS V14.00,2013-05-08 06:07:00,
2013-05-08 02:12:00,66.0,61.4,30.00,WNW,286,0.0,0.0,85,0.00,,CLR,0.00,0.00,VWS V14.00,2013-05-08 06:12:00,
2013-05-08 02:17:00,66.0,61.4,30.00,WNW,286,0.0,0.0,85,0.00,,CLR,0.00,0.00,VWS V14.00,2013-05-08 06:17:00,
2013-05-08 02:22:00,65.9,61.3,30.00,WNW,286,0.0,0.0,85,0.00,,CLR,0.00,0.00,VWS V14.00,2013-05-08 06:22:00,
2013-05-08 02:27:00,65.8,61.2,30.00,WNW,286,0.0,0.0,85,0.00,,CLR,0.00,0.00,VWS V14.00,2013-05-08 06:27:00,
2013-05-08 02:33:00,65.7,61.1,30.00,WNW,286,0.0,0.0,85,0.00,,CLR,0.00,0.00,VWS V14.00,2013-05-08 06:33:00,
2013-05-08 02:38:00,65.6,61.0,30.00,WNW,286,0.0,0.0,85,0.00,,CLR,0.00,0.00,VWS V14.00,2013-05-08 06:38:00,
2013-05-08 02:43:00,65.5,60.9,30.00,WNW,286,1.0,2.0,85,0.00,,CLR,0.00,0.00,VWS V14.00,2013-05-08 06:43:00,
2013-05-08 02:48:00,65.4,60.8,30.00,WNW,286,0.0,0.0,85,0.00,,CLR,0.00,0.00,VWS V14.00,2013-05-08 06:48:00,
2013-05-08 02:53:00,65.3,60.7,30.00,WNW,286,0.0,2.0,85,0.00,,CLR,0.00,0.00,VWS V14.00,2013-05-08 06:53:00,
2013-05-08 02:58:00,65.3,60.7,30.00,WNW,286,0.0,0.0,85,0.00,,CLR,0.00,0.00,VWS V14.00,2013-05-08 06:58:00,
2013-05-08 03:03:00,65.2,60.9,30.00,WNW,286,0.0,0.0,86,0.00,,CLR,0.00,0.00,VWS V14.00,2013-05-08 07:03:00,
2013-05-08 03:08:00,65.2,60.9,30.00,WNW,286,0.0,2.0,86,0.00,,CLR,0.00,0.00,VWS V14.00,2013-05-08 07:08:00,
2013-05-08 03:13:00,65.2,60.9,30.00,WNW,286,0.0,1.0,86,0.00,,CLR,0.00,0.00,VWS V14.00,2013-05-08 07:13:00,
2013-05-08 03:18:00,65.1,60.8,30.00,WNW,286,0.0,2.0,86,0.00,,CLR,0.00,0.00,VWS V14.00,2013-05-08 07:18:00,
2013-05-08 03:23:00,65.2,61.2,30.00,WNW,286,0.0,0.0,87,0.00,,CLR,0.00,0.00,VWS V14.00,2013-05-08 07:23:00,
2013-05-08 03:28:00,65.2,61.2,30.00,WNW,286,0.0,0.0,87,0.00,,CLR,0.00,0.00,VWS V14.00,2013-05-08 07:28:00,
2013-05-08 03:33:00,65.2,61.2,30.00,WNW,286,0.0,1.0,87,0.00,,CLR,0.00,0.00,VWS V14.00,2013-05-08 07:33:00,
2013-05-08 03:38:00,65.1,61.1,30.00,WNW,286,0.0,1.0,87,0.00,,CLR,0.00,0.00,VWS V14.00,2013-05-08 07:38:00,
2013-05-08 03:43:00,64.9,60.9,30.00,WNW,286,0.0,0.0,87,0.00,,CLR,0.00,0.00,VWS V14.00,2013-05-08 07:43:00,
2013-05-08 03:48:00,64.9,60.9,30.01,WNW,286,3.0,4.0,87,0.00,,CLR,0.00,0.00,VWS V14.00,2013-05-08 07:48:00,
2013-05-08 03:53:00,64.9,60.9,30.01,WNW,286,0.0,3.0,87,0.00,,CLR,0.00,0.00,VWS V14.00,2013-05-08 07:53:00,
2013-05-08 03:58:00,64.8,60.8,30.01,WNW,286,0.0,0.0,87,0.00,,CLR,0.00,0.00,VWS V14.00,2013-05-08 07:58:00,
2013-05-08 04:03:00,64.8,60.5,30.00,WNW,286,0.0,1.0,86,0.00,,CLR,0.00,0.00,VWS V14.00,2013-05-08 08:03:00,
2013-05-08 04:08:00,64.8,60.5,30.01,WNW,286,0.0,1.0,86,0.00,,CLR,0.00,0.00,VWS V14.00,2013-05-08 08:08:00,
2013-05-08 04:13:00,64.8,60.5,30.01,WNW,286,0.0,2.0,86,0.00,,CLR,0.00,0.00,VWS V14.00,2013-05-08 08:13:00,
2013-05-08 04:18:00,64.7,60.4,30.01,WNW,286,2.0,2.0,86,0.00,,CLR,0.00,0.00,VWS V14.00,2013-05-08 08:18:00,
2013-05-08 04:23:00,64.8,60.8,30.01,WNW,286,0.0,0.0,87,0.00,,CLR,0.00,0.00,VWS V14.00,2013-05-08 08:23:00,
2013-05-08 04:28:00,64.8,60.8,30.01,WNW,286,3.0,3.0,87,0.00,,CLR,0.00,0.00,VWS V14.00,2013-05-08 08:28:00,
2013-05-08 04:33:00,64.7,60.8,30.01,WNW,286,0.0,0.0,87,0.00,,CLR,0.00,0.00,VWS V14.00,2013-05-08 08:33:00,
2013-05-08 04:38:00,64.7,60.8,30.01,WNW,286,0.0,2.0,87,0.00,,CLR,0.00,0.00,VWS V14.00,2013-05-08 08:38:00,
2013-05-08 04:43:00,64.7,60.8,30.01,WNW,286,0.0,0.0,87,0.00,,CLR,0.00,0.00,VWS V14.00,2013-05-08 08:43:00,
2013-05-08 04:48:00,64.7,60.8,30.01,WNW,286,0.0,1.0,87,0.00,,CLR,0.00,0.00,VWS V14.00,2013-05-08 08:48:00,
2013-05-08 04:53:00,64.6,60.7,30.01,WNW,286,0.0,0.0,87,0.00,,CLR,0.00,0.00,VWS V14.00,2013-05-08 08:53:00,
2013-05-08 04:58:00,64.7,61.1,30.01,WNW,286,0.0,0.0,88,0.00,,CLR,0.00,0.00,VWS V14.00,2013-05-08 08:58:00,
2013-05-08 05:03:00,64.7,61.1,30.01,WNW,286,0.0,0.0,88,0.00,,CLR,0.00,0.00,VWS V14.00,2013-05-08 09:03:00,
2013-05-08 05:08:00,64.7,61.1,30.02,WNW,286,0.0,0.0,88,0.00,,CLR,0.00,0.00,VWS V14.00,2013-05-08 09:08:00,
2013-05-08 05:13:00,64.6,61.0,30.02,WNW,286,0.0,0.0,88,0.00,,CLR,0.00,0.00,VWS V14.00,2013-05-08 09:13:00,
2013-05-08 05:18:00,64.4,60.8,30.02,WNW,286,0.0,0.0,88,0.00,,CLR,0.00,0.00,VWS V14.00,2013-05-08 09:18:00,
2013-05-08 05:23:00,64.3,60.7,30.02,WNW,286,0.0,0.0,88,0.00,,CLR,0.00,0.00,VWS V14.00,2013-05-08 09:23:00,
2013-05-08 05:28:00,64.1,60.5,30.02,WNW,286,0.0,0.0,88,0.00,,CLR,0.00,0.00,VWS V14.00,2013-05-08 09:28:00,
2013-05-08 05:33:00,64.0,60.4,30.02,WNW,286,0.0,0.0,88,0.00,,CLR,0.00,0.00,VWS V14.00,2013-05-08 09:33:00,
2013-05-08 05:38:00,63.9,60.3,30.03,WNW,286,0.0,0.0,88,0.00,,CLR,0.00,0.00,VWS V14.00,2013-05-08 09:38:00,
2013-05-08 05:43:00,63.7,60.1,30.03,WNW,286,0.0,0.0,88,0.00,,CLR,0.00,0.00,VWS V14.00,2013-05-08 09:43:00,
2013-05-08 05:48:00,63.6,60.0,30.03,WNW,286,0.0,0.0,88,0.00,,CLR,0.00,0.00,VWS V14.00,2013-05-08 09:48:00,
2013-05-08 05:53:00,63.6,60.3,30.03,WNW,286,0.0,0.0,89,0.00,,CLR,0.00,0.00,VWS V14.00,2013-05-08 09:53:00,
2013-05-08 05:58:00,63.7,60.4,30.03,WNW,286,0.0,0.0,89,0.00,,CLR,0.00,0.00,VWS V14.00,2013-05-08 09:58:00,
2013-05-08 06:03:00,63.7,60.4,30.03,WNW,286,0.0,0.0,89,0.00,,CLR,0.00,0.00,VWS V14.00,2013-05-08 10:03:00,
2013-05-08 06:08:00,63.7,60.4,30.03,WNW,286,0.0,0.0,89,0.00,,CLR,0.00,0.00,VWS V14.00,2013-05-08 10:08:00,
2013-05-08 06:13:00,63.8,60.5,30.04,WNW,286,0.0,0.0,89,0.00,,CLR,0.00,0.00,VWS V14.00,2013-05-08 10:13:00,
2013-05-08 06:18:00,63.6,60.3,30.04,WNW,286,0.0,0.0,89,0.00,,CLR,0.00,0.00,VWS V14.00,2013-05-08 10:18:00,
2013-05-08 06:23:00,63.5,60.2,30.04,WNW,286,0.0,0.0,89,0.00,,CLR,0.00,0.00,VWS V14.00,2013-05-08 10:23:00,
2013-05-08 06:28:00,63.3,60.0,30.04,WNW,286,0.0,0.0,89,0.00,,CLR,0.00,0.00,VWS V14.00,2013-05-08 10:28:00,
2013-05-08 06:33:00,63.2,59.9,30.04,WNW,286,0.0,0.0,89,0.00,,CLR,0.00,0.00,VWS V14.00,2013-05-08 10:33:00,
2013-05-08 06:38:00,63.2,59.9,30.04,WNW,286,0.0,0.0,89,0.00,,CLR,0.00,0.00,VWS V14.00,2013-05-08 10:38:00,
2013-05-08 06:43:00,63.4,60.1,30.04,WNW,286,0.0,0.0,89,0.00,,CLR,0.00,9.00,VWS V14.00,2013-05-08 10:43:00,
2013-05-08 06:48:00,63.4,60.1,30.05,WNW,286,0.0,0.0,89,0.00,,CLR,0.00,56.00,VWS V14.00,2013-05-08 10:48:00,
2013-05-08 06:53:00,63.4,60.1,30.05,WNW,286,0.0,0.0,89,0.00,,CLR,0.00,88.00,VWS V14.00,2013-05-08 10:53:00,
2013-05-08 06:58:00,63.4,60.1,30.05,WNW,286,0.0,0.0,89,0.00,,CLR,0.00,128.00,VWS V14.00,2013-05-08 10:58:00,
2013-05-08 07:03:00,63.5,60.2,30.05,WNW,286,0.0,0.0,89,0.00,,CLR,0.00,158.00,VWS V14.00,2013-05-08 11:03:00,
2013-05-08 07:08:00,63.7,60.4,30.05,WNW,286,0.0,0.0,89,0.00,,CLR,0.00,276.00,VWS V14.00,2013-05-08 11:08:00,
2013-05-08 07:13:00,64.1,61.1,30.05,WNW,286,0.0,0.0,90,0.00,,CLR,0.00,295.00,VWS V14.00,2013-05-08 11:13:00,
2013-05-08 07:18:00,64.5,61.2,30.05,WNW,286,2.0,2.0,89,0.00,,CLR,0.00,253.00,VWS V14.00,2013-05-08 11:18:00,
2013-05-08 07:23:00,64.7,61.4,30.05,WNW,286,0.0,0.0,89,0.00,,CLR,0.00,220.00,VWS V14.00,2013-05-08 11:23:00,
2013-05-08 07:28:00,64.9,61.6,30.06,WNW,286,0.0,0.0,89,0.00,,CLR,0.00,229.00,VWS V14.00,2013-05-08 11:28:00,
2013-05-08 07:33:00,65.1,61.8,30.06,WNW,286,0.0,0.0,89,0.00,,SKC,0.00,229.00,VWS V14.00,2013-05-08 11:33:00,
2013-05-08 07:38:00,65.3,62.0,30.06,WNW,286,2.0,2.0,89,0.00,,SKC,0.00,230.00,VWS V14.00,2013-05-08 11:38:00,
2013-05-08 07:43:00,65.5,62.2,30.07,WNW,286,0.0,0.0,89,0.00,,SKC,0.00,229.00,VWS V14.00,2013-05-08 11:43:00,
2013-05-08 07:48:00,65.6,62.3,30.07,WNW,286,0.0,1.0,89,0.00,,SKC,0.00,229.00,VWS V14.00,2013-05-08 11:48:00,
2013-05-08 07:53:00,65.8,62.2,30.07,WNW,286,0.0,0.0,88,0.00,,SKC,0.00,229.00,VWS V14.00,2013-05-08 11:53:00,
2013-05-08 07:58:00,66.1,62.5,30.07,WNW,286,4.0,4.0,88,0.00,,SKC,0.00,234.00,VWS V14.00,2013-05-08 11:58:00,
2013-05-08 08:03:00,66.4,62.4,30.07,WNW,286,0.0,2.0,87,0.00,,SKC,0.00,269.00,VWS V14.00,2013-05-08 12:03:00,
2013-05-08 08:08:00,66.8,62.8,30.07,WNW,286,0.0,3.0,87,0.00,,SKC,0.00,248.00,VWS V14.00,2013-05-08 12:08:00,
2013-05-08 08:13:00,67.2,62.9,30.07,WNW,286,2.0,4.0,86,0.00,,SKC,0.00,202.00,VWS V14.00,2013-05-08 12:13:00,
2013-05-08 08:18:00,67.7,63.4,30.07,WNW,286,2.0,3.0,86,0.00,,SKC,0.00,193.00,VWS V14.00,2013-05-08 12:18:00,
2013-05-08 08:23:00,67.9,63.2,30.08,WNW,286,0.0,2.0,85,0.00,,SKC,0.00,186.00,VWS V14.00,2013-05-08 12:23:00,
2013-05-08 08:28:00,68.2,63.2,30.08,WNW,286,0.0,1.0,84,0.00,,SKC,0.00,179.00,VWS V14.00,2013-05-08 12:28:00,
2013-05-08 08:33:00,68.5,63.5,30.08,WNW,286,0.0,0.0,84,0.00,,SKC,0.00,174.00,VWS V14.00,2013-05-08 12:33:00,
2013-05-08 08:38:00,68.7,63.3,30.08,WNW,286,0.0,1.0,83,0.00,,SKC,0.00,171.00,VWS V14.00,2013-05-08 12:38:00,
2013-05-08 08:43:00,69.1,64.1,30.08,WNW,286,0.0,0.0,84,0.00,,SKC,0.00,171.00,VWS V14.00,2013-05-08 12:43:00,
2013-05-08 08:48:00,69.2,63.5,30.08,WNW,286,0.0,0.0,82,0.00,,SKC,0.00,172.00,VWS V14.00,2013-05-08 12:48:00,
2013-05-08 08:53:00,69.4,63.3,30.08,West,278,0.0,0.0,81,0.00,,SKC,0.00,176.00,VWS V14.00,2013-05-08 12:53:00,
2013-05-08 08:58:00,69.8,63.7,30.08,West,278,0.0,1.0,81,0.00,,SKC,0.00,178.00,VWS V14.00,2013-05-08 12:58:00,
2013-05-08 09:03:00,70.2,63.8,30.08,West,278,0.0,0.0,80,0.00,,SKC,0.00,179.00,VWS V14.00,2013-05-08 13:03:00,
2013-05-08 09:08:00,70.4,63.9,30.08,West,278,0.0,1.0,80,0.00,,SKC,0.00,181.00,VWS V14.00,2013-05-08 13:08:00,
2013-05-08 09:13:00,70.6,63.8,30.08,West,278,0.0,0.0,79,0.00,,SKC,0.00,185.00,VWS V14.00,2013-05-08 13:13:00,
2013-05-08 09:18:00,70.8,63.6,30.08,West,278,0.0,0.0,78,0.00,,SKC,0.00,186.00,VWS V14.00,2013-05-08 13:18:00,
2013-05-08 09:23:00,71.2,64.0,30.08,West,278,0.0,1.0,78,0.00,,SKC,0.00,188.00,VWS V14.00,2013-05-08 13:23:00,
2013-05-08 09:28:00,71.4,63.8,30.08,West,278,0.0,1.0,77,0.00,,SKC,0.00,190.00,VWS V14.00,2013-05-08 13:28:00,
2013-05-08 09:33:00,71.7,64.1,30.08,West,278,0.0,1.0,77,0.00,,SKC,0.00,193.00,VWS V14.00,2013-05-08 13:33:00,
2013-05-08 09:38:00,72.0,63.3,30.09,West,278,0.0,0.0,74,0.00,,SKC,0.00,193.00,VWS V14.00,2013-05-08 13:38:00,
2013-05-08 09:43:00,72.2,63.5,30.09,West,278,0.0,0.0,74,0.00,,SKC,0.00,195.00,VWS V14.00,2013-05-08 13:43:00,
2013-05-08 09:48:00,72.2,61.9,30.09,West,278,2.0,3.0,70,0.00,,SKC,0.00,197.00,VWS V14.00,2013-05-08 13:48:00,
2013-05-08 09:53:00,72.3,62.8,30.09,West,278,0.0,3.0,72,0.00,,SKC,0.00,199.00,VWS V14.00,2013-05-08 13:53:00,
2013-05-08 09:58:00,72.2,62.7,30.09,West,281,0.0,2.0,72,0.00,,SKC,0.00,197.00,VWS V14.00,2013-05-08 13:58:00,
2013-05-08 10:03:00,72.4,63.7,30.09,West,281,0.0,0.0,74,0.00,,SKC,0.00,199.00,VWS V14.00,2013-05-08 14:03:00,
2013-05-08 10:08:00,73.1,63.2,30.09,West,281,0.0,1.0,71,0.00,,SKC,0.00,200.00,VWS V14.00,2013-05-08 14:08:00,
2013-05-08 10:13:00,73.2,62.8,30.09,WNW,293,0.0,5.0,70,0.00,,SKC,0.00,200.00,VWS V14.00,2013-05-08 14:13:00,
2013-05-08 10:18:00,73.0,63.0,30.09,WNW,294,0.0,2.0,71,0.00,,SKC,0.00,200.00,VWS V14.00,2013-05-08 14:18:00,
2013-05-08 10:23:00,73.2,60.7,30.09,WNW,292,3.0,4.0,65,0.00,,SKC,0.00,202.00,VWS V14.00,2013-05-08 14:23:00,
2013-05-08 10:28:00,73.4,60.5,30.09,WNW,288,0.0,3.0,64,0.00,,SKC,0.00,204.00,VWS V14.00,2013-05-08 14:28:00,
2013-05-08 10:33:00,73.8,60.9,30.09,WNW,288,3.0,3.0,64,0.00,,SKC,0.00,185.00,VWS V14.00,2013-05-08 14:33:00,
2013-05-08 10:38:00,73.8,60.4,30.09,WNW,292,4.0,6.0,63,0.00,,SKC,0.00,202.00,VWS V14.00,2013-05-08 14:38:00,
2013-05-08 10:43:00,73.6,61.5,30.09,WNW,293,1.0,5.0,66,0.00,,SKC,0.00,202.00,VWS V14.00,2013-05-08 14:43:00,
2013-05-08 10:48:00,73.7,61.2,30.09,WNW,300,2.0,6.0,65,0.00,,SKC,0.00,202.00,VWS V14.00,2013-05-08 14:48:00,
2013-05-08 10:53:00,74.0,61.5,30.09,WNW,300,3.0,4.0,65,0.00,,SKC,0.00,202.00,VWS V14.00,2013-05-08 14:53:00,
2013-05-08 10:58:00,74.3,61.8,30.09,WNW,300,1.0,4.0,65,0.00,,SKC,0.00,202.00,VWS V14.00,2013-05-08 14:58:00,
2013-05-08 11:03:00,74.9,62.8,30.09,WNW,300,0.0,0.0,66,0.00,,SKC,0.00,200.00,VWS V14.00,2013-05-08 15:03:00,
2013-05-08 11:08:00,75.2,62.2,30.09,WNW,292,4.0,4.0,64,0.00,,SKC,0.00,199.00,VWS V14.00,2013-05-08 15:08:00,
2013-05-08 11:13:00,75.3,61.8,30.09,WNW,293,2.0,3.0,63,0.00,,SKC,0.00,199.00,VWS V14.00,2013-05-08 15:13:00,
2013-05-08 11:18:00,75.5,60.7,30.09,WNW,290,5.0,6.0,60,0.00,,SKC,0.00,200.00,VWS V14.00,2013-05-08 15:18:00,
2013-05-08 11:23:00,75.7,60.4,30.09,WNW,284,3.0,3.0,59,0.00,,SKC,0.00,199.00,VWS V14.00,2013-05-08 15:23:00,
2013-05-08 11:28:00,76.2,60.4,30.09,West,263,6.0,6.0,58,0.00,,SKC,0.00,197.00,VWS V14.00,2013-05-08 15:28:00,
2013-05-08 11:33:00,76.9,60.0,30.09,West,265,4.0,7.0,56,0.00,,SKC,0.00,199.00,VWS V14.00,2013-05-08 15:33:00,
2013-05-08 11:38:00,77.3,58.3,30.09,West,263,6.0,6.0,52,0.00,,SKC,0.00,199.00,VWS V14.00,2013-05-08 15:38:00,
2013-05-08 11:43:00,77.5,56.9,30.09,West,274,3.0,7.0,49,0.00,,SKC,0.00,197.00,VWS V14.00,2013-05-08 15:43:00,
2013-05-08 11:49:00,77.4,56.2,30.09,West,274,5.0,9.0,48,0.00,,SKC,0.00,197.00,VWS V14.00,2013-05-08 15:49:00,
2013-05-08 11:54:00,77.5,56.9,30.08,West,271,7.0,7.0,49,0.00,,SKC,0.00,197.00,VWS V14.00,2013-05-08 15:54:00,
2013-05-08 11:59:00,77.6,57.0,30.08,West,266,2.0,6.0,49,0.00,,SKC,0.00,197.00,VWS V14.00,2013-05-08 15:59:00,
2013-05-08 12:04:00,77.8,58.8,30.08,West,280,2.0,6.0,52,0.00,,SKC,0.00,195.00,VWS V14.00,2013-05-08 16:04:00,
2013-05-08 12:09:00,77.8,57.7,30.08,West,270,4.0,7.0,50,0.00,,SKC,0.00,195.00,VWS V14.00,2013-05-08 16:09:00,
2013-05-08 12:14:00,77.9,58.3,30.08,West,259,11.0,11.0,51,0.00,,SKC,0.00,195.00,VWS V14.00,2013-05-08 16:14:00,
2013-05-08 12:19:00,78.0,56.7,30.08,West,261,0.0,7.0,48,0.00,,SKC,0.00,193.00,VWS V14.00,2013-05-08 16:19:00,
2013-05-08 12:24:00,77.8,58.2,30.07,West,275,4.0,10.0,51,0.00,,SKC,0.00,192.00,VWS V14.00,2013-05-08 16:24:00,
2013-05-08 12:29:00,78.1,59.1,30.07,WNW,288,1.0,6.0,52,0.00,,SKC,0.00,192.00,VWS V14.00,2013-05-08 16:29:00,
2013-05-08 12:34:00,78.5,59.4,30.07,WNW,283,0.0,2.0,52,0.00,,SKC,0.00,190.00,VWS V14.00,2013-05-08 16:34:00,
2013-05-08 12:39:00,79.3,60.7,30.07,West,279,4.0,6.0,53,0.00,,SKC,0.00,190.00,VWS V14.00,2013-05-08 16:39:00,
2013-05-08 12:44:00,78.9,59.2,30.07,WNW,300,0.0,1.0,51,0.00,,SKC,0.00,188.00,VWS V14.00,2013-05-08 16:44:00,
2013-05-08 12:49:00,79.2,58.4,30.07,West,279,5.0,7.0,49,0.00,,SKC,0.00,186.00,VWS V14.00,2013-05-08 16:49:00,
2013-05-08 12:54:00,79.3,59.1,30.07,WNW,282,7.0,9.0,50,0.00,,SKC,0.00,186.00,VWS V14.00,2013-05-08 16:54:00,
2013-05-08 12:59:00,79.4,59.2,30.07,WNW,284,3.0,5.0,50,0.00,,SKC,0.00,185.00,VWS V14.00,2013-05-08 16:59:00,
2013-05-08 13:04:00,79.6,58.2,30.07,West,270,6.0,10.0,48,0.00,,SKC,0.00,183.00,VWS V14.00,2013-05-08 17:04:00,
2013-05-08 13:09:00,79.4,59.7,30.06,WNW,291,7.0,9.0,51,0.00,,SKC,0.00,181.00,VWS V14.00,2013-05-08 17:09:00,
2013-05-08 13:14:00,79.7,58.9,30.06,WNW,294,5.0,5.0,49,0.00,,SKC,0.00,179.00,VWS V14.00,2013-05-08 17:14:00,
2013-05-08 13:19:00,80.2,59.3,30.06,WNW,294,3.0,5.0,49,0.00,,SKC,0.00,179.00,VWS V14.00,2013-05-08 17:19:00,
2013-05-08 13:24:00,80.4,58.3,30.06,WNW,298,4.0,5.0,47,0.00,,SKC,0.00,181.00,VWS V14.00,2013-05-08 17:24:00,
2013-05-08 13:29:00,80.5,58.4,30.05,WNW,298,4.0,10.0,47,0.00,,SKC,0.00,181.00,VWS V14.00,2013-05-08 17:29:00,
2013-05-08 13:34:00,80.6,57.9,30.05,WNW,295,4.0,4.0,46,0.00,,SKC,0.00,183.00,VWS V14.00,2013-05-08 17:34:00,
2013-05-08 13:39:00,80.5,58.4,30.05,WNW,294,2.0,6.0,47,0.00,,CLR,0.00,183.00,VWS V14.00,2013-05-08 17:39:00,
2013-05-08 13:44:00,80.9,56.3,30.05,West,280,5.0,10.0,43,0.00,,CLR,0.00,183.00,VWS V14.00,2013-05-08 17:44:00,
2013-05-08 13:49:00,81.1,57.2,30.05,West,272,5.0,7.0,44,0.00,,CLR,0.00,183.00,VWS V14.00,2013-05-08 17:49:00,
2013-05-08 13:54:00,81.2,56.0,30.05,West,259,3.0,11.0,42,0.00,,CLR,0.00,183.00,VWS V14.00,2013-05-08 17:54:00,
2013-05-08 13:59:00,81.7,55.7,30.05,West,262,3.0,4.0,41,0.00,,CLR,0.00,183.00,VWS V14.00,2013-05-08 17:59:00,
2013-05-08 14:04:00,82.0,56.7,30.05,WSW,257,7.0,12.0,42,0.00,,CLR,0.00,181.00,VWS V14.00,2013-05-08 18:04:00,
2013-05-08 14:09:00,82.1,56.1,30.05,West,274,7.0,8.0,41,0.00,,CLR,0.00,181.00,VWS V14.00,2013-05-08 18:09:00,
2013-05-08 14:14:00,82.0,57.3,30.05,WNW,286,7.0,11.0,43,0.00,,CLR,0.00,181.00,VWS V14.00,2013-05-08 18:14:00,
2013-05-08 14:19:00,82.2,56.2,30.05,West,274,4.0,9.0,41,0.00,,CLR,0.00,181.00,VWS V14.00,2013-05-08 18:19:00,
2013-05-08 14:24:00,82.6,56.5,30.05,West,261,5.0,6.0,41,0.00,,CLR,0.00,179.00,VWS V14.00,2013-05-08 18:24:00,
2013-05-08 14:29:00,82.5,56.5,30.04,WNW,296,8.0,10.0,41,0.00,,CLR,0.00,179.00,VWS V14.00,2013-05-08 18:29:00,
2013-05-08 14:34:00,82.5,57.1,30.04,WNW,289,5.0,7.0,42,0.00,,CLR,0.00,178.00,VWS V14.00,2013-05-08 18:34:00,
2013-05-08 14:39:00,82.8,57.4,30.04,West,275,5.0,10.0,42,0.00,,CLR,0.00,176.00,VWS V14.00,2013-05-08 18:39:00,
2013-05-08 14:44:00,82.8,55.3,30.04,West,273,3.0,9.0,39,0.00,,CLR,0.00,176.00,VWS V14.00,2013-05-08 18:44:00,
2013-05-08 14:49:00,82.9,56.1,30.04,WNW,299,5.0,5.0,40,0.00,,CLR,0.00,174.00,VWS V14.00,2013-05-08 18:49:00,
2013-05-08 14:54:00,83.0,56.2,30.04,WNW,284,2.0,6.0,40,0.00,,CLR,0.00,174.00,VWS V14.00,2013-05-08 18:54:00,
2013-05-08 14:59:00,83.1,57.7,30.03,West,277,0.0,3.0,42,0.00,,CLR,0.00,169.00,VWS V14.00,2013-05-08 18:59:00,
2013-05-08 15:04:00,83.8,58.3,30.03,West,276,6.0,7.0,42,0.00,,CLR,0.00,171.00,VWS V14.00,2013-05-08 19:04:00,
2013-05-08 15:09:00,83.8,57.6,30.03,WNW,297,1.0,7.0,41,0.00,,CLR,0.00,169.00,VWS V14.00,2013-05-08 19:09:00,
2013-05-08 15:14:00,84.0,57.1,30.03,West,266,11.0,14.0,40,0.00,,CLR,0.00,169.00,VWS V14.00,2013-05-08 19:14:00,
2013-05-08 15:19:00,83.9,55.6,30.03,West,269,7.0,7.0,38,0.00,,CLR,0.00,167.00,VWS V14.00,2013-05-08 19:19:00,
2013-05-08 15:24:00,84.1,57.9,30.03,West,267,5.0,11.0,41,0.00,,CLR,0.00,165.00,VWS V14.00,2013-05-08 19:24:00,
2013-05-08 15:29:00,84.1,57.2,30.03,WNW,285,5.0,5.0,40,0.00,,CLR,0.00,163.00,VWS V14.00,2013-05-08 19:29:00,
2013-05-08 15:34:00,84.2,55.9,30.03,West,267,11.0,17.0,38,0.00,,CLR,0.00,163.00,VWS V14.00,2013-05-08 19:34:00,
2013-05-08 15:39:00,84.5,54.6,30.03,West,261,4.0,10.0,36,0.00,,CLR,0.00,160.00,VWS V14.00,2013-05-08 19:39:00,
2013-05-08 15:44:00,84.3,56.0,30.02,West,267,8.0,9.0,38,0.00,,CLR,0.00,158.00,VWS V14.00,2013-05-08 19:44:00,
2013-05-08 15:49:00,84.0,57.1,30.02,West,272,0.0,3.0,40,0.00,,CLR,0.00,156.00,VWS V14.00,2013-05-08 19:49:00,
2013-05-08 15:54:00,83.9,55.6,30.02,West,273,0.0,5.0,38,0.00,,CLR,0.00,155.00,VWS V14.00,2013-05-08 19:54:00,
2013-05-08 15:59:00,83.8,57.6,30.02,West,269,7.0,9.0,41,0.00,,CLR,0.00,155.00,VWS V14.00,2013-05-08 19:59:00,
2013-05-08 16:04:00,83.9,57.0,30.01,West,267,0.0,3.0,40,0.00,,CLR,0.00,155.00,VWS V14.00,2013-05-08 20:04:00,
2013-05-08 16:09:00,84.2,58.0,30.01,WSW,243,0.0,1.0,41,0.00,,CLR,0.00,155.00,VWS V14.00,2013-05-08 20:09:00,
2013-05-08 16:15:00,84.6,57.6,30.02,West,263,3.0,7.0,40,0.00,,CLR,0.00,155.00,VWS V14.00,2013-05-08 20:15:00,
2013-05-08 16:20:00,84.6,56.9,30.02,West,261,7.0,12.0,39,0.00,,CLR,0.00,153.00,VWS V14.00,2013-05-08 20:20:00,
2013-05-08 16:25:00,83.9,57.7,30.02,West,267,12.0,13.0,41,0.00,,CLR,0.00,151.00,VWS V14.00,2013-05-08 20:25:00,
2013-05-08 16:30:00,83.9,58.4,30.02,WNW,284,4.0,7.0,42,0.00,,CLR,0.00,149.00,VWS V14.00,2013-05-08 20:30:00,
2013-05-08 16:35:00,84.3,58.1,30.02,WSW,252,6.0,9.0,41,0.00,,CLR,0.00,149.00,VWS V14.00,2013-05-08 20:35:00,
2013-05-08 16:40:00,84.6,56.9,30.02,WSW,257,5.0,9.0,39,0.00,,CLR,0.00,148.00,VWS V14.00,2013-05-08 20:40:00,
2013-05-08 16:45:00,84.8,57.1,30.01,WSW,238,6.0,10.0,39,0.00,,CLR,0.00,148.00,VWS V14.00,2013-05-08 20:45:00,
2013-05-08 16:50:00,84.5,56.8,30.01,West,270,3.0,3.0,39,0.00,,CLR,0.00,146.00,VWS V14.00,2013-05-08 20:50:00,
2013-05-08 16:55:00,84.8,57.8,30.01,West,266,5.0,6.0,40,0.00,,CLR,0.00,146.00,VWS V14.00,2013-05-08 20:55:00,
2013-05-08 17:00:00,85.1,57.4,30.01,WSW,257,6.0,15.0,39,0.00,,CLR,0.00,144.00,VWS V14.00,2013-05-08 21:00:00,
2013-05-08 17:05:00,84.6,59.0,30.01,West,281,1.0,6.0,42,0.00,,CLR,0.00,146.00,VWS V14.00,2013-05-08 21:05:00,
2013-05-08 17:10:00,84.5,58.2,30.01,WSW,257,3.0,5.0,41,0.00,,CLR,0.00,142.00,VWS V14.00,2013-05-08 21:10:00,
2013-05-08 17:15:00,84.6,59.0,30.01,West,274,3.0,10.0,42,0.00,,CLR,0.00,141.00,VWS V14.00,2013-05-08 21:15:00,
2013-05-08 17:20:00,84.6,59.7,30.01,West,275,0.0,4.0,43,0.00,,CLR,0.00,141.00,VWS V14.00,2013-05-08 21:20:00,
2013-05-08 17:25:00,85.0,60.0,30.01,West,275,0.0,4.0,43,0.00,,CLR,0.00,146.00,VWS V14.00,2013-05-08 21:25:00,
2013-05-08 17:30:00,85.0,60.0,30.01,West,275,1.0,4.0,43,0.00,,CLR,0.00,146.00,VWS V14.00,2013-05-08 21:30:00,
2013-05-08 17:35:00,84.9,60.6,30.01,West,277,5.0,5.0,44,0.00,,CLR,0.00,139.00,VWS V14.00,2013-05-08 21:35:00,
2013-05-08 17:40:00,84.8,60.5,30.01,West,277,0.0,2.0,44,0.00,,FEW090,0.00,144.00,VWS V14.00,2013-05-08 21:40:00,
2013-05-08 17:45:00,84.8,61.1,30.01,WNW,283,2.0,6.0,45,0.00,,FEW090,0.00,47.00,VWS V14.00,2013-05-08 21:45:00,
2013-05-08 17:50:00,84.2,60.0,30.01,West,273,6.0,7.0,44,0.00,,FEW090,0.00,118.00,VWS V14.00,2013-05-08 21:50:00,
2013-05-08 17:55:00,83.8,60.8,30.01,West,273,0.0,1.0,46,0.00,,FEW090,0.00,44.00,VWS V14.00,2013-05-08 21:55:00,
2013-05-08 18:00:00,83.6,60.0,30.01,West,273,4.0,5.0,45,0.00,,FEW090,0.00,62.00,VWS V14.00,2013-05-08 22:00:00,
2013-05-08 18:05:00,83.5,61.8,30.01,West,271,3.0,3.0,48,0.00,,FEW090,0.00,76.00,VWS V14.00,2013-05-08 22:05:00,
2013-05-08 18:10:00,84.0,61.6,30.01,West,273,5.0,5.0,47,0.00,,FEW090,0.00,141.00,VWS V14.00,2013-05-08 22:10:00,
2013-05-08 18:15:00,84.1,61.7,30.01,West,272,0.0,6.0,47,0.00,,FEW090,0.00,141.00,VWS V14.00,2013-05-08 22:15:00,
2013-05-08 18:20:00,84.4,62.0,30.01,West,272,1.0,4.0,47,0.00,,FEW090,0.00,65.00,VWS V14.00,2013-05-08 22:20:00,
2013-05-08 18:25:00,84.4,62.0,30.01,West,272,0.0,6.0,47,0.00,,FEW090,0.00,111.00,VWS V14.00,2013-05-08 22:25:00,
2013-05-08 18:30:00,84.0,61.0,30.01,West,273,2.0,6.0,46,0.00,,FEW090,0.00,42.00,VWS V14.00,2013-05-08 22:30:00,
2013-05-08 18:35:00,83.7,62.5,30.01,West,273,0.0,1.0,49,0.00,,FEW050,0.00,67.00,VWS V14.00,2013-05-08 22:35:00,
2013-05-08 18:40:00,83.7,61.3,30.01,West,273,1.0,4.0,47,0.00,,FEW050,0.00,44.00,VWS V14.00,2013-05-08 22:40:00,
2013-05-08 18:45:00,83.6,61.3,30.01,West,273,2.0,2.0,47,0.00,,FEW050,0.00,42.00,VWS V14.00,2013-05-08 22:45:00,
2013-05-08 18:50:00,83.6,61.3,30.00,West,273,0.0,1.0,47,0.00,,FEW050,0.00,97.00,VWS V14.00,2013-05-08 22:50:00,
2013-05-08 18:55:00,83.8,61.4,30.00,West,273,0.0,0.0,47,0.00,,FEW050,0.00,47.00,VWS V14.00,2013-05-08 22:55:00,
2013-05-08 19:00:00,83.8,62.6,30.01,West,273,0.0,0.0,49,0.00,,FEW050,0.00,46.00,VWS V14.00,2013-05-08 23:00:00,
2013-05-08 19:05:00,83.6,61.3,30.01,West,273,1.0,4.0,47,0.00,,FEW050,0.00,28.00,VWS V14.00,2013-05-08 23:05:00,
2013-05-08 19:10:00,83.4,61.7,30.00,West,273,0.0,1.0,48,0.00,,FEW050,0.00,58.00,VWS V14.00,2013-05-08 23:10:00,
2013-05-08 19:15:00,83.2,61.5,30.00,West,273,0.0,0.0,48,0.00,,FEW050,0.00,19.00,VWS V14.00,2013-05-08 23:15:00,
2013-05-08 19:20:00,82.9,62.4,30.00,West,273,0.0,0.0,50,0.00,,FEW050,0.00,19.00,VWS V14.00,2013-05-08 23:20:00,
2013-05-08 19:25:00,82.8,63.9,30.01,West,267,4.0,5.0,53,0.00,,FEW050,0.00,47.00,VWS V14.00,2013-05-08 23:25:00,
2013-05-08 19:30:00,81.8,64.6,30.01,West,261,1.0,1.0,56,0.00,,FEW050,0.00,26.00,VWS V14.00,2013-05-08 23:30:00,
2013-05-08 19:35:00,81.1,64.4,30.01,WSW,248,2.0,4.0,57,0.00,,FEW050,0.00,11.00,VWS V14.00,2013-05-08 23:35:00,
2013-05-08 19:40:00,80.5,64.4,30.01,WSW,244,0.0,4.0,58,0.00,,FEW050,0.00,9.00,VWS V14.00,2013-05-08 23:40:00,
2013-05-08 19:45:00,80.2,65.1,30.01,WSW,238,4.0,5.0,60,0.00,,FEW050,0.00,5.00,VWS V14.00,2013-05-08 23:45:00,
2013-05-08 19:50:00,79.8,64.7,30.01,SW,236,4.0,5.0,60,0.00,,FEW050,0.00,0.00,VWS V14.00,2013-05-08 23:50:00,
2013-05-08 19:55:00,79.5,64.9,30.02,SW,227,4.0,6.0,61,0.00,,FEW050,0.00,0.00,VWS V14.00,2013-05-08 23:55:00,
2013-05-08 20:00:00,79.3,64.7,30.02,SW,222,5.0,5.0,61,0.00,,FEW050,0.00,0.00,VWS V14.00,2013-05-09 00:00:00,
2013-05-08 20:05:00,79.1,65.0,30.02,SW,221,1.0,3.0,62,0.00,,FEW050,0.00,0.00,VWS V14.00,2013-05-09 00:05:00,
2013-05-08 20:10:00,78.9,65.2,30.01,SW,220,4.0,6.0,63,0.00,,FEW050,0.00,0.00,VWS V14.00,2013-05-09 00:10:00,
2013-05-08 20:15:00,78.7,65.1,30.02,SW,217,2.0,4.0,63,0.00,,FEW050,0.00,0.00,VWS V14.00,2013-05-09 00:15:00,
2013-05-08 20:20:00,78.5,65.3,30.02,SW,216,1.0,1.0,64,0.00,,FEW050,0.00,0.00,VWS V14.00,2013-05-09 00:20:00,
2013-05-08 20:25:00,78.4,65.2,30.02,SSW,211,0.0,0.0,64,0.00,,FEW040,0.00,0.00,VWS V14.00,2013-05-09 00:25:00,
2013-05-08 20:30:00,78.3,65.6,30.02,SSW,208,9.0,9.0,65,0.00,,FEW040,0.00,0.00,VWS V14.00,2013-05-09 00:30:00,
2013-05-08 20:35:00,78.2,65.9,30.02,SSW,208,5.0,6.0,66,0.00,,FEW040,0.00,0.00,VWS V14.00,2013-05-09 00:35:00,
2013-05-08 20:40:00,78.0,65.7,30.03,SSW,208,0.0,0.0,66,0.00,,FEW040,0.00,0.00,VWS V14.00,2013-05-09 00:40:00,
2013-05-08 20:45:00,78.0,65.7,30.03,SSW,208,0.0,0.0,66,0.00,,FEW040,0.00,0.00,VWS V14.00,2013-05-09 00:45:00,
2013-05-08 20:50:00,77.8,65.5,30.03,SSW,208,0.0,0.0,66,0.00,,FEW040,0.00,0.00,VWS V14.00,2013-05-09 00:50:00,
2013-05-08 20:55:00,77.7,65.4,30.03,SSW,208,0.0,0.0,66,0.00,,FEW040,0.00,0.00,VWS V14.00,2013-05-09 00:55:00,
2013-05-08 21:00:00,77.6,65.8,30.03,SSW,208,2.0,2.0,67,0.00,,FEW040,0.00,0.00,VWS V14.00,2013-05-09 01:00:00,
2013-05-08 21:05:00,77.4,65.6,30.04,SSW,208,0.0,0.0,67,0.00,,FEW040,0.00,0.00,VWS V14.00,2013-05-09 01:05:00,
2013-05-08 21:10:00,77.3,65.5,30.04,SSW,208,0.0,0.0,67,0.00,,FEW040,0.00,0.00,VWS V14.00,2013-05-09 01:10:00,
2013-05-08 21:15:00,77.2,65.4,30.04,SSW,208,0.0,1.0,67,0.00,,FEW040,0.00,0.00,VWS V14.00,2013-05-09 01:15:00,
2013-05-08 21:21:00,77.1,65.7,30.05,SSW,208,0.0,0.0,68,0.00,,FEW040,0.00,0.00,VWS V14.00,2013-05-09 01:21:00,
2013-05-08 21:26:00,76.9,65.5,30.05,SSW,208,0.0,0.0,68,0.00,,FEW040,0.00,0.00,VWS V14.00,2013-05-09 01:26:00,
2013-05-08 21:31:00,76.8,65.9,30.05,SSW,208,0.0,0.0,69,0.00,,FEW040,0.00,0.00,VWS V14.00,2013-05-09 01:31:00,
2013-05-08 21:36:00,76.6,65.7,30.05,SSW,208,0.0,0.0,69,0.00,,FEW040,0.00,0.00,VWS V14.00,2013-05-09 01:36:00,
2013-05-08 21:41:00,76.5,66.0,30.06,SSW,208,0.0,0.0,70,0.00,,FEW050,0.00,0.00,VWS V14.00,2013-05-09 01:41:00,
2013-05-08 21:46:00,76.4,65.9,30.06,SSW,208,0.0,0.0,70,0.00,,FEW050,0.00,0.00,VWS V14.00,2013-05-09 01:46:00,
2013-05-08 21:51:00,76.3,66.2,30.06,SSW,208,0.0,2.0,71,0.00,,FEW050,0.00,0.00,VWS V14.00,2013-05-09 01:51:00,
2013-05-08 21:56:00,76.2,66.1,30.06,SSW,208,0.0,2.0,71,0.00,,FEW050,0.00,0.00,VWS V14.00,2013-05-09 01:56:00,
2013-05-08 22:01:00,76.1,66.4,30.06,SSW,208,0.0,0.0,72,0.00,,FEW050,0.00,0.00,VWS V14.00,2013-05-09 02:01:00,
2013-05-08 22:06:00,76.0,65.9,30.06,SSW,208,0.0,0.0,71,0.00,,FEW050,0.00,0.00,VWS V14.00,2013-05-09 02:06:00,
2013-05-08 22:11:00,75.8,65.3,30.06,SSW,208,0.0,0.0,70,0.00,,FEW050,0.00,0.00,VWS V14.00,2013-05-09 02:11:00,
2013-05-08 22:16:00,75.7,65.2,30.07,SSW,208,0.0,0.0,70,0.00,,FEW050,0.00,0.00,VWS V14.00,2013-05-09 02:16:00,
2013-05-08 22:21:00,75.6,65.1,30.07,SSW,208,0.0,0.0,70,0.00,,FEW050,0.00,0.00,VWS V14.00,2013-05-09 02:21:00,
2013-05-08 22:26:00,75.6,63.9,30.07,SSW,209,0.0,1.0,67,0.00,,FEW050,0.00,0.00,VWS V14.00,2013-05-09 02:26:00,
2013-05-08 22:31:00,75.6,63.9,30.08,SSW,209,0.0,0.0,67,0.00,,FEW050,0.00,0.00,VWS V14.00,2013-05-09 02:31:00,
2013-05-08 22:36:00,75.6,63.9,30.08,SSW,209,0.0,0.0,67,0.00,,FEW050,0.00,0.00,VWS V14.00,2013-05-09 02:36:00,
2013-05-08 22:41:00,75.4,63.7,30.08,SSW,209,2.0,2.0,67,0.00,,FEW050,0.00,0.00,VWS V14.00,2013-05-09 02:41:00,
2013-05-08 22:46:00,75.3,62.3,30.08,SSW,209,0.0,0.0,64,0.00,,FEW050,0.00,0.00,VWS V14.00,2013-05-09 02:46:00,
2013-05-08 22:51:00,75.3,61.4,30.08,SSW,209,0.0,0.0,62,0.00,,FEW050,0.00,0.00,VWS V14.00,2013-05-09 02:51:00,
2013-05-08 22:56:00,75.3,62.3,30.08,SSW,209,0.0,1.0,64,0.00,,FEW050,0.00,0.00,VWS V14.00,2013-05-09 02:56:00,
2013-05-08 23:01:00,75.1,61.7,30.08,SSW,209,0.0,0.0,63,0.00,,FEW050,0.00,0.00,VWS V14.00,2013-05-09 03:01:00,
2013-05-08 23:06:00,75.0,62.0,30.08,SSW,209,0.0,0.0,64,0.00,,FEW050,0.00,0.00,VWS V14.00,2013-05-09 03:06:00,
2013-05-08 23:11:00,74.9,61.5,30.08,SSW,209,0.0,0.0,63,0.00,,FEW050,0.00,0.00,VWS V14.00,2013-05-09 03:11:00,
2013-05-08 23:16:00,74.7,60.8,30.08,SSW,209,0.0,0.0,62,0.00,,FEW050,0.00,0.00,VWS V14.00,2013-05-09 03:16:00,
2013-05-08 23:21:00,74.5,60.6,30.08,SSW,209,0.0,0.0,62,0.00,,FEW050,0.00,0.00,VWS V14.00,2013-05-09 03:21:00,
2013-05-08 23:26:00,74.2,60.8,30.08,SSW,209,0.0,0.0,63,0.00,,FEW050,0.00,0.00,VWS V14.00,2013-05-09 03:26:00,
2013-05-08 23:31:00,73.8,60.9,30.08,SSW,209,0.0,0.0,64,0.00,,FEW050,0.00,0.00,VWS V14.00,2013-05-09 03:31:00,
2013-05-08 23:36:00,73.6,61.5,30.08,SSW,209,0.0,0.0,66,0.00,,FEW050,0.00,0.00,VWS V14.00,2013-05-09 03:36:00,
2013-05-08 23:41:00,73.2,60.7,30.08,SSW,209,0.0,0.0,65,0.00,,CLR,0.00,0.00,VWS V14.00,2013-05-09 03:41:00,
2013-05-08 23:46:00,73.1,62.3,30.08,SSW,209,0.0,0.0,69,0.00,,CLR,0.00,0.00,VWS V14.00,2013-05-09 03:46:00,
2013-05-08 23:51:00,72.9,62.5,30.08,SSW,209,0.0,0.0,70,0.00,,CLR,0.00,0.00,VWS V14.00,2013-05-09 03:51:00,
2013-05-08 23:56:00,72.6,61.9,30.08,SSW,209,0.0,1.0,69,0.00,,CLR,0.00,0.00,VWS V14.00,2013-05-09 03:56:00,